Terminal Aerodrome Forecast
Issued by NWS Paducah, KY

Home | Current Version | Previous Version | Text Only | Print | Product List | Glossary On
Versions: 1 2 3 4 5 6 7 8 9 10 11 12 13 14 15 16 17
000
FTUS43 KPAH 201800 AAA
TAFEVV
TAF AMD
KEVV 201839Z 2019/2118 23008G15KT P6SM SCT030
      TEMPO 2019/2021 27012G22KT 6SM -SHRA BR SCT035 BKN060
     FM202200 21004KT P6SM SKC
     FM210300 24006KT P6SM SCT040 BKN120
     FM210700 26008KT P6SM VCSH BKN040 OVC090
     FM211300 29008KT P6SM SKC=

USA.gov is the U.S. government's official web portal to all federal, state and local government web resources and services.